Time;durP1;ratioP1;P1;durP2;ratioP2;P2;SDS_P1;SDS_P2;PMS_P1;PMS_P2;Temp;Humidity;BMP_temperature;BMP_pressure;BME280_temperature;BME280_humidity;BME280_pressure;Samples;Min_cycle;Max_cycle;Signal;HPM_P1;HPM_P2
2022/12/11 00:02:17;;;;;;;46.17;22.73;;;;;;;6.82;67.59;101197.56;5029908;28;20018;-41
2022/12/11 00:04:42;;;;;;;45.05;22.65;;;;;;;6.86;67.50;101197.72;5029903;28;20040;-38
2022/12/11 00:07:07;;;;;;;42.83;21.80;;;;;;;6.87;67.18;101202.06;5030518;28;20025;-40
2022/12/11 00:09:33;;;;;;;41.95;21.45;;;;;;;6.93;67.15;101201.41;5031352;28;20021;-41
2022/12/11 00:11:58;;;;;;;44.60;21.50;;;;;;;6.93;67.35;101199.69;5033013;28;20108;-39
2022/12/11 00:14:24;;;;;;;43.33;22.40;;;;;;;6.88;67.42;101192.59;5035478;28;20477;-43
2022/12/11 00:16:49;;;;;;;45.08;22.23;;;;;;;6.91;67.27;101193.56;5038940;28;20025;-41
2022/12/11 00:19:14;;;;;;;44.25;21.88;;;;;;;6.93;67.14;101191.91;5039436;28;20033;-42
2022/12/11 00:21:40;;;;;;;41.67;22.40;;;;;;;6.95;67.15;101197.16;5038841;28;20105;-41
2022/12/11 00:24:05;;;;;;;40.85;22.02;;;;;;;6.89;67.14;101192.63;5039625;28;20026;-39
2022/12/11 00:26:31;;;;;;;40.60;22.90;;;;;;;6.90;67.41;101189.19;5039316;28;20088;-42
2022/12/11 00:28:56;;;;;;;41.65;22.60;;;;;;;7.01;66.98;101183.50;5034564;28;20394;-41
2022/12/11 00:31:22;;;;;;;42.42;22.45;;;;;;;6.92;67.07;101192.75;5034562;28;20474;-40
2022/12/11 00:33:48;;;;;;;43.60;23.35;;;;;;;6.92;66.77;101199.63;5034539;28;20102;-42
2022/12/11 00:36:19;;;;;;;44.83;23.42;;;;;;;6.97;66.84;101202.38;5033941;28;20029;-43
2022/12/11 00:38:45;;;;;;;41.20;22.27;;;;;;;7.01;66.79;101192.16;5034362;28;20021;-41
2022/12/11 00:41:11;;;;;;;43.10;22.52;;;;;;;6.79;66.90;101195.75;5033935;28;20029;-42
2022/12/11 00:43:36;;;;;;;42.70;22.85;;;;;;;6.87;67.17;101202.06;5033613;28;20609;-41
2022/12/11 00:46:02;;;;;;;40.22;22.67;;;;;;;6.93;66.91;101191.91;5034959;28;20112;-41
2022/12/11 00:48:27;;;;;;;39.88;22.48;;;;;;;6.95;66.73;101191.09;5035190;28;20024;-41
2022/12/11 00:50:53;;;;;;;39.83;22.30;;;;;;;6.96;66.81;101190.22;5034546;28;20346;-42
2022/12/11 00:53:18;;;;;;;46.20;23.38;;;;;;;6.85;66.88;101188.16;5035990;28;20025;-43
2022/12/11 00:55:44;;;;;;;39.15;22.15;;;;;;;6.85;66.72;101180.41;5035792;28;20075;-41
2022/12/11 00:58:10;;;;;;;41.25;22.75;;;;;;;6.99;66.71;101185.16;5035333;28;20043;-42
2022/12/11 01:00:36;;;;;;;39.88;21.67;;;;;;;7.00;66.39;101181.75;5033975;28;20060;-41
2022/12/11 01:03:01;;;;;;;37.22;21.65;;;;;;;7.02;66.28;101175.75;5033978;28;20057;-41
2022/12/11 01:05:27;;;;;;;39.33;22.02;;;;;;;6.81;67.03;101182.84;5033520;28;20552;-42
2022/12/11 01:07:52;;;;;;;35.88;21.27;;;;;;;6.79;66.34;101180.19;5033441;28;20449;-41
2022/12/11 01:10:23;;;;;;;37.78;20.52;;;;;;;6.52;66.89;101181.88;5033048;28;20096;-41
2022/12/11 01:12:53;;;;;;;36.30;21.02;;;;;;;6.69;66.94;101183.31;5033071;28;20029;-45
2022/12/11 01:15:21;;;;;;;40.15;20.67;;;;;;;6.65;66.63;101185.75;5033539;28;20110;-41
2022/12/11 01:17:48;;;;;;;38.35;21.30;;;;;;;6.69;66.96;101182.44;5034046;28;20063;-43
2022/12/11 01:20:13;;;;;;;38.67;20.42;;;;;;;6.73;66.92;101181.69;5033822;28;20033;-42
2022/12/11 01:22:38;;;;;;;35.15;19.75;;;;;;;6.61;67.21;101187.34;5033059;28;20371;-42
2022/12/11 01:25:04;;;;;;;33.08;18.98;;;;;;;6.62;67.34;101196.00;5033238;28;20441;-42
2022/12/11 01:27:30;;;;;;;32.22;19.05;;;;;;;6.69;66.95;101190.22;5033743;28;20033;-41
2022/12/11 01:29:55;;;;;;;36.45;19.15;;;;;;;6.58;67.40;101189.84;5032723;28;20068;-43
2022/12/11 01:32:21;;;;;;;32.13;18.17;;;;;;;6.42;67.09;101195.31;5032781;28;20053;-42
2022/12/11 01:34:46;;;;;;;33.58;18.08;;;;;;;6.42;66.87;101192.72;5032353;28;20036;-41
2022/12/11 01:37:11;;;;;;;33.92;17.70;;;;;;;6.47;66.65;101186.88;5032750;28;20025;-42
2022/12/11 01:39:39;;;;;;;34.15;18.50;;;;;;;6.15;67.70;101184.88;5031422;28;20017;-42
2022/12/11 01:42:09;;;;;;;35.28;17.98;;;;;;;6.19;67.52;101191.03;5032474;28;20465;-42
2022/12/11 01:44:34;;;;;;;31.48;17.45;;;;;;;6.22;67.40;101185.97;5032767;28;20056;-43
2022/12/11 01:46:59;;;;;;;32.97;18.05;;;;;;;6.15;67.90;101186.56;5031473;28;20418;-41
2022/12/11 01:49:27;;;;;;;32.40;17.80;;;;;;;6.18;68.09;101186.66;5034123;28;20117;-41
2022/12/11 01:52:02;;;;;;;34.60;18.00;;;;;;;6.27;67.90;101180.13;5034326;28;20448;-41
2022/12/11 01:54:28;;;;;;;34.35;18.08;;;;;;;6.25;67.96;101184.38;5034062;28;20033;-45
2022/12/11 01:56:59;;;;;;;34.58;17.58;;;;;;;6.23;67.90;101182.53;5034357;28;20075;-44
2022/12/11 01:59:28;;;;;;;30.95;17.23;;;;;;;6.08;68.41;101180.28;5033602;28;20025;-42
2022/12/11 02:01:58;;;;;;;35.58;18.40;;;;;;;6.16;68.25;101178.84;5034494;28;20374;-43
2022/12/11 02:04:24;;;;;;;33.53;17.17;;;;;;;5.99;68.54;101183.41;5035243;28;20084;-41
2022/12/11 02:06:51;;;;;;;34.53;17.23;;;;;;;5.88;68.36;101176.97;5034188;28;20033;-40
2022/12/11 02:09:21;;;;;;;38.53;18.80;;;;;;;6.26;67.93;101180.94;5033912;28;20246;-41
2022/12/11 02:11:52;;;;;;;32.83;17.13;;;;;;;6.42;67.33;101183.25;5033840;28;20103;-42
2022/12/11 02:14:41;;;;;;;34.95;18.00;;;;;;;6.31;67.39;101183.69;5035778;28;20032;-41
2022/12/11 02:17:17;;;;;;;37.15;18.40;;;;;;;6.31;67.49;101182.00;5036073;28;20036;-41
2022/12/11 02:20:02;;;;;;;38.50;18.67;;;;;;;6.04;67.98;101193.94;5035362;28;20025;-42
2022/12/11 02:22:46;;;;;;;38.28;19.08;;;;;;;6.31;67.07;101179.41;5032954;28;20021;-40
2022/12/11 02:25:34;;;;;;;34.78;17.98;;;;;;;6.39;67.28;101179.69;5036026;28;20033;-41
2022/12/11 02:28:15;;;;;;;36.58;19.13;;;;;;;5.89;68.35;101177.84;5034735;28;20612;-41
2022/12/11 02:30:44;;;;;;;38.15;18.30;;;;;;;6.33;67.00;101182.94;5034084;28;20478;-41
2022/12/11 02:33:12;;;;;;;38.88;19.80;;;;;;;6.17;67.67;101182.31;5034536;28;20057;-40
2022/12/11 02:35:40;;;;;;;38.78;19.90;;;;;;;6.20;67.13;101180.72;5035028;28;20029;-38
2022/12/11 02:38:32;;;;;;;39.33;19.95;;;;;;;6.27;67.38;101179.25;5035114;28;20022;-41
2022/12/11 02:40:59;;;;;;;40.22;20.30;;;;;;;6.30;66.96;101174.16;5029718;28;20124;-42
2022/12/11 02:43:26;;;;;;;40.95;19.85;;;;;;;6.11;67.31;101176.09;5035110;28;20022;-42
2022/12/11 02:45:52;;;;;;;44.70;21.15;;;;;;;6.08;67.75;101172.53;5035717;28;20021;-41
2022/12/11 02:48:21;;;;;;;40.50;20.15;;;;;;;6.25;67.48;101168.81;5035038;28;20061;-41
2022/12/11 02:50:51;;;;;;;43.00;20.63;;;;;;;6.42;66.89;101166.81;5034264;28;20049;-42
2022/12/11 02:53:21;;;;;;;45.47;21.08;;;;;;;6.01;67.57;101166.25;5034652;28;20494;-40
2022/12/11 02:55:51;;;;;;;42.13;19.98;;;;;;;5.95;67.57;101157.38;5034124;28;20029;-42
2022/12/11 02:58:20;;;;;;;40.83;19.48;;;;;;;6.17;67.12;101159.91;5033987;28;20030;-39
2022/12/11 03:00:46;;;;;;;41.05;19.42;;;;;;;5.93;68.05;101156.44;5034051;28;20021;-43
2022/12/11 03:03:12;;;;;;;41.08;19.48;;;;;;;6.10;67.93;101158.78;5034725;28;20021;-41
2022/12/11 03:05:38;;;;;;;40.17;19.33;;;;;;;6.24;67.21;101148.94;5034197;28;20116;-41
2022/12/11 03:08:04;;;;;;;41.13;19.17;;;;;;;6.24;66.91;101146.34;5035215;28;20096;-38
2022/12/11 03:10:29;;;;;;;40.63;19.58;;;;;;;6.26;67.12;101139.53;5033453;28;20037;-40
2022/12/11 03:12:57;;;;;;;38.85;19.05;;;;;;;6.43;66.52;101145.28;5033319;28;20029;-42
2022/12/11 03:15:42;;;;;;;39.88;18.90;;;;;;;6.38;66.72;101142.53;5033937;28;20029;-41
2022/12/11 03:18:25;;;;;;;40.85;19.27;;;;;;;6.25;66.95;101142.94;5035427;28;20056;-39
2022/12/11 03:21:05;;;;;;;39.03;19.52;;;;;;;6.12;67.40;101145.91;5033309;28;20566;-41
2022/12/11 03:23:42;;;;;;;43.22;19.98;;;;;;;6.24;67.32;101140.28;5055203;22;20054;-43
2022/12/11 03:26:12;;;;;;;42.88;19.77;;;;;;;6.17;67.92;101144.38;5031469;28;20089;-47
2022/12/11 03:29:00;;;;;;;40.10;18.92;;;;;;;6.22;67.79;101140.22;5032749;28;20025;-41
2022/12/11 03:31:32;;;;;;;40.13;19.02;;;;;;;6.26;67.36;101138.63;5031754;28;20330;-43
2022/12/11 03:34:02;;;;;;;40.67;19.48;;;;;;;6.23;67.42;101134.22;5030727;28;20040;-48
2022/12/11 03:36:33;;;;;;;42.35;19.20;;;;;;;6.21;67.72;101135.91;5030375;28;20029;-43
2022/12/11 03:39:08;;;;;;;44.72;20.38;;;;;;;6.39;66.96;101127.88;5030948;28;20029;-42
2022/12/11 03:41:36;;;;;;;38.25;19.23;;;;;;;6.14;67.72;101145.97;5030058;28;20021;-43
2022/12/11 03:44:02;;;;;;;42.92;19.30;;;;;;;5.87;68.50;101141.56;5030174;28;20041;-45
2022/12/11 03:46:32;;;;;;;41.15;18.95;;;;;;;6.20;67.52;101139.31;5029848;28;20545;-46
2022/12/11 03:49:02;;;;;;;40.55;18.73;;;;;;;6.10;67.72;101138.09;5030263;28;20545;-48
2022/12/11 03:51:31;;;;;;;39.75;18.38;;;;;;;6.22;67.21;101131.59;5029885;28;20032;-44
2022/12/11 03:53:57;;;;;;;37.85;17.80;;;;;;;6.02;66.66;101136.06;5030731;28;20095;-42
2022/12/11 03:56:25;;;;;;;38.08;17.42;;;;;;;6.37;66.17;101140.78;5031036;28;20108;-44
2022/12/11 03:58:50;;;;;;;34.70;17.98;;;;;;;6.28;65.76;101135.25;5030610;28;20033;-45
2022/12/11 04:01:16;;;;;;;37.42;18.17;;;;;;;6.25;66.25;101136.88;5030057;28;20076;-48
2022/12/11 04:03:41;;;;;;;36.05;17.33;;;;;;;6.39;65.51;101133.94;5030315;28;20109;-42
2022/12/11 04:06:07;;;;;;;40.47;18.55;;;;;;;6.13;66.88;101124.38;5030511;28;20060;-44
2022/12/11 04:08:32;;;;;;;38.22;17.85;;;;;;;6.15;66.45;101121.88;5030668;28;20536;-43
2022/12/11 04:13:41;;;;;;;34.92;17.25;;;;;;;6.27;66.58;101128.34;5030366;28;20181;-45
2022/12/11 04:16:07;;;;;;;39.90;17.55;;;;;;;5.94;67.24;101116.78;5030266;28;20108;-44
2022/12/11 04:24:15;;;;;;;33.35;16.83;;;;;;;6.36;65.64;101105.34;5030093;28;20513;-43
2022/12/11 04:26:45;;;;;;;32.72;15.80;;;;;;;6.21;66.41;101104.84;5029635;28;20069;-44
2022/12/11 04:29:10;;;;;;;35.58;15.95;;;;;;;5.89;67.11;101102.81;5029672;28;20091;-43
2022/12/11 04:31:35;;;;;;;32.95;15.65;;;;;;;6.17;66.18;101107.25;5029459;28;20033;-50
2022/12/11 04:34:01;;;;;;;32.50;15.55;;;;;;;6.20;66.19;101099.59;5030217;28;20507;-42
2022/12/11 04:36:26;;;;;;;31.77;16.15;;;;;;;6.09;66.24;101104.41;5030181;28;20033;-43
2022/12/11 04:38:51;;;;;;;32.08;15.57;;;;;;;5.99;66.53;101110.06;5030171;28;20112;-42
2022/12/11 04:41:17;;;;;;;30.75;15.45;;;;;;;6.03;66.12;101106.78;5033516;28;20374;-44
2022/12/11 04:43:44;;;;;;;30.35;14.43;;;;;;;6.11;65.91;101113.09;5033875;28;20017;-44
2022/12/11 04:46:12;;;;;;;30.83;14.43;;;;;;;6.10;65.66;101114.78;5034531;28;20026;-43
2022/12/11 04:48:37;;;;;;;29.42;14.60;;;;;;;6.23;65.20;101113.50;5033777;28;20025;-45
2022/12/11 04:51:04;;;;;;;28.13;14.27;;;;;;;6.38;65.07;101120.94;5033302;28;20500;-44
2022/12/11 04:53:30;;;;;;;31.05;14.65;;;;;;;6.21;64.87;101116.91;5033025;28;20033;-46
2022/12/11 04:55:55;;;;;;;28.02;14.45;;;;;;;6.18;65.36;101114.19;5033765;28;20064;-43
2022/12/11 04:58:22;;;;;;;33.10;15.40;;;;;;;6.14;65.59;101115.81;5034390;28;20029;-43
2022/12/11 05:00:47;;;;;;;28.50;14.40;;;;;;;6.06;65.73;101112.94;5037374;28;20371;-47
2022/12/11 05:03:14;;;;;;;27.55;14.65;;;;;;;6.01;65.87;101114.50;5037548;28;20407;-42
2022/12/11 05:05:39;;;;;;;30.27;14.55;;;;;;;6.30;65.38;101110.31;5037524;28;20033;-43
2022/12/11 05:08:05;;;;;;;26.15;12.98;;;;;;;6.08;65.50;101107.81;5035950;28;20113;-43
2022/12/11 05:10:30;;;;;;;25.02;12.90;;;;;;;6.02;65.72;101108.50;5033865;28;20033;-41
2022/12/11 05:12:55;;;;;;;26.30;13.15;;;;;;;6.19;65.02;101108.19;5033959;28;20026;-44
2022/12/11 05:15:21;;;;;;;23.38;12.65;;;;;;;6.18;65.16;101109.00;5033328;28;20044;-42
2022/12/11 05:17:46;;;;;;;23.63;12.20;;;;;;;6.36;64.68;101109.63;5033307;28;20474;-45
2022/12/11 05:20:11;;;;;;;26.05;12.20;;;;;;;6.19;64.13;101109.06;5033879;28;20386;-44
2022/12/11 05:22:37;;;;;;;24.25;12.63;;;;;;;6.34;64.13;101107.00;5037108;28;20409;-47
2022/12/11 05:25:04;;;;;;;22.40;11.68;;;;;;;6.41;63.97;101106.38;5039335;28;20056;-45
2022/12/11 05:27:29;;;;;;;24.48;11.73;;;;;;;6.44;63.98;101101.31;5034655;28;20456;-44
2022/12/11 05:29:54;;;;;;;23.35;12.05;;;;;;;6.45;63.94;101107.38;5033191;28;20402;-43
2022/12/11 05:32:20;;;;;;;24.00;12.00;;;;;;;6.43;63.81;101106.44;5032597;28;20029;-42
2022/12/11 05:34:45;;;;;;;23.48;11.45;;;;;;;6.53;63.74;101103.31;5032945;28;20064;-44
2022/12/11 05:37:10;;;;;;;22.92;12.23;;;;;;;6.42;64.07;101092.59;5032808;28;20026;-43
2022/12/11 05:39:36;;;;;;;23.30;12.15;;;;;;;6.41;63.80;101097.72;5032865;28;20116;-43
2022/12/11 05:42:02;;;;;;;21.40;11.50;;;;;;;6.44;63.50;101090.94;5032122;28;20021;-43
2022/12/11 05:44:27;;;;;;;24.80;12.32;;;;;;;6.44;63.47;101092.66;5032772;28;20038;-43
2022/12/11 05:46:52;;;;;;;25.17;12.52;;;;;;;6.39;63.75;101094.22;5032565;28;20108;-42
2022/12/11 05:49:18;;;;;;;22.98;12.30;;;;;;;6.37;63.66;101088.97;5032668;28;20030;-43
2022/12/11 05:51:43;;;;;;;23.13;12.40;;;;;;;6.38;63.57;101095.94;5032416;28;20024;-42
2022/12/11 05:54:09;;;;;;;24.75;12.18;;;;;;;6.40;63.24;101090.81;5032383;28;20029;-43
2022/12/11 05:56:35;;;;;;;23.30;11.60;;;;;;;6.39;63.48;101092.50;5032283;28;20021;-44
2022/12/11 05:59:01;;;;;;;24.10;11.80;;;;;;;6.43;63.40;101101.25;5031927;28;20083;-50
2022/12/11 06:01:37;;;;;;;22.48;12.07;;;;;;;6.25;62.93;101096.34;5031525;28;20056;-46
2022/12/11 06:04:04;;;;;;;22.95;11.82;;;;;;;6.30;62.89;101094.78;5032103;28;20033;-43
2022/12/11 06:06:31;;;;;;;22.75;11.65;;;;;;;6.31;62.79;101093.06;5031982;28;20033;-44
2022/12/11 06:08:58;;;;;;;23.05;12.02;;;;;;;6.16;62.98;101093.41;5031651;28;20104;-44
2022/12/11 06:11:25;;;;;;;24.60;12.50;;;;;;;6.07;63.14;101087.94;5031121;28;20032;-47
2022/12/11 06:13:51;;;;;;;24.23;12.30;;;;;;;5.90;63.72;101091.66;5031439;28;20021;-43
2022/12/11 06:16:16;;;;;;;25.60;11.90;;;;;;;6.02;63.45;101097.25;5031789;28;20021;-43
2022/12/11 06:18:43;;;;;;;23.30;11.60;;;;;;;5.89;63.98;101102.81;5031859;28;20048;-43
2022/12/11 06:21:18;;;;;;;23.08;11.63;;;;;;;5.94;63.81;101101.28;5031701;28;20113;-43
2022/12/11 06:23:45;;;;;;;22.95;11.85;;;;;;;5.89;64.57;101105.41;5031532;28;20033;-42
2022/12/11 06:26:10;;;;;;;22.98;11.95;;;;;;;5.84;64.40;101099.16;5031591;28;20030;-45
2022/12/11 06:28:36;;;;;;;22.42;11.88;;;;;;;5.93;64.27;101099.50;5031671;28;20029;-45
2022/12/11 06:31:03;;;;;;;25.98;12.35;;;;;;;5.93;64.46;101102.97;5031070;28;20445;-43
2022/12/11 06:33:29;;;;;;;25.27;11.55;;;;;;;5.97;64.12;101098.81;5031171;28;20030;-46
2022/12/11 06:35:55;;;;;;;25.73;12.82;;;;;;;5.93;63.96;101102.09;5031269;28;20037;-46
2022/12/11 06:38:20;;;;;;;25.92;12.30;;;;;;;6.01;63.71;101100.66;5031724;28;20129;-44
2022/12/11 06:40:54;;;;;;;26.15;12.23;;;;;;;5.97;63.73;101096.22;5030711;28;20493;-42
2022/12/11 06:43:20;;;;;;;25.93;12.63;;;;;;;5.88;63.86;101094.16;5031380;28;20028;-46
2022/12/11 06:45:45;;;;;;;25.48;12.55;;;;;;;5.84;64.41;101094.88;5031277;28;20276;-43
2022/12/11 06:48:10;;;;;;;25.38;12.40;;;;;;;5.80;64.02;101097.25;5031172;28;20029;-43
2022/12/11 06:50:37;;;;;;;24.20;12.23;;;;;;;5.77;64.27;101094.59;5031107;28;20033;-43
2022/12/11 06:53:02;;;;;;;26.15;13.07;;;;;;;5.59;64.96;101093.09;5031407;28;20025;-43
2022/12/11 06:55:28;;;;;;;25.63;12.52;;;;;;;5.71;65.01;101097.84;5033706;28;20035;-43
2022/12/11 06:57:53;;;;;;;29.15;12.68;;;;;;;5.66;65.52;101100.25;5032857;28;20048;-44
2022/12/11 07:00:19;;;;;;;27.33;13.27;;;;;;;5.77;65.03;101095.47;5032912;28;20544;-44
2022/12/11 07:02:44;;;;;;;30.45;13.60;;;;;;;5.81;65.19;101086.09;5031784;28;20040;-44
2022/12/11 07:05:09;;;;;;;29.88;12.73;;;;;;;5.93;64.70;101095.22;5030988;28;20105;-44
2022/12/11 07:07:35;;;;;;;27.73;12.93;;;;;;;5.98;64.77;101091.06;5031067;28;20021;-43
2022/12/11 07:10:00;;;;;;;28.40;13.00;;;;;;;5.94;64.83;101090.91;5030946;28;20021;-46
2022/12/11 07:12:25;;;;;;;28.45;13.05;;;;;;;5.92;64.78;101092.56;5030381;28;20467;-43
2022/12/11 07:14:51;;;;;;;27.40;12.90;;;;;;;5.91;64.69;101094.28;5030370;28;20040;-44
2022/12/11 07:17:16;;;;;;;31.30;13.02;;;;;;;5.81;65.22;101089.56;5030644;28;20557;-43
2022/12/11 07:19:41;;;;;;;27.88;12.40;;;;;;;5.53;65.41;101087.69;5030456;28;20382;-43
2022/12/11 07:22:07;;;;;;;29.75;13.07;;;;;;;5.61;65.55;101087.97;5029305;28;20394;-48
2022/12/11 07:24:32;;;;;;;28.65;12.57;;;;;;;5.73;64.71;101093.59;5030233;28;20033;-45
2022/12/11 07:26:58;;;;;;;28.40;12.70;;;;;;;5.72;64.62;101090.13;5030529;28;20095;-43
2022/12/11 07:29:23;;;;;;;29.00;12.70;;;;;;;5.68;64.52;101095.13;5030148;28;20025;-48
2022/12/11 07:31:49;;;;;;;26.25;12.18;;;;;;;5.52;64.93;101098.84;5030059;28;20025;-43
2022/12/11 07:34:14;;;;;;;31.10;13.30;;;;;;;5.45;65.15;101099.44;5030083;28;20033;-44
2022/12/11 07:36:40;;;;;;;28.38;12.52;;;;;;;5.51;64.86;101096.22;5028969;28;20046;-44
2022/12/11 07:39:07;;;;;;;32.03;13.18;;;;;;;5.39;65.55;101096.63;5031044;28;20018;-47
2022/12/11 07:41:32;;;;;;;27.95;12.82;;;;;;;5.44;65.38;101109.72;5031670;28;20017;-41
2022/12/11 07:43:59;;;;;;;30.83;13.63;;;;;;;5.37;64.66;101106.03;5031630;28;20496;-47
2022/12/11 07:46:27;;;;;;;30.83;13.05;;;;;;;5.30;66.12;101114.41;5033202;28;20013;-41
2022/12/11 07:48:53;;;;;;;31.67;12.75;;;;;;;5.32;65.59;101113.63;5030290;28;20040;-48
2022/12/11 07:51:23;;;;;;;29.02;12.77;;;;;;;5.20;66.34;101122.59;5029811;28;20025;-45
2022/12/11 07:53:49;;;;;;;28.25;12.75;;;;;;;5.19;66.08;101119.13;5029734;28;20025;-42
2022/12/11 07:56:15;;;;;;;32.15;13.40;;;;;;;5.18;66.79;101121.69;5033905;28;20017;-48
2022/12/11 07:58:41;;;;;;;31.17;13.15;;;;;;;5.31;66.53;101116.13;5033833;28;20533;-44
2022/12/11 08:01:12;;;;;;;32.80;12.65;;;;;;;5.39;66.34;101132.84;5030020;28;20109;-49
2022/12/11 08:03:38;;;;;;;28.98;12.45;;;;;;;5.48;66.36;101127.13;5030426;28;20017;-44
2022/12/11 08:06:03;;;;;;;30.25;12.93;;;;;;;5.48;66.57;101135.78;5030147;28;20501;-44
2022/12/11 08:08:29;;;;;;;29.23;12.68;;;;;;;5.62;66.62;101124.22;5029707;28;20022;-42
2022/12/11 08:10:54;;;;;;;30.13;13.13;;;;;;;5.63;66.54;101122.53;5029936;28;20537;-45
2022/12/11 08:13:19;;;;;;;30.17;12.65;;;;;;;5.71;66.50;101118.53;5030454;28;20043;-47
2022/12/11 08:15:45;;;;;;;29.88;12.65;;;;;;;5.77;66.31;101120.44;5031439;28;20029;-42
2022/12/11 08:18:10;;;;;;;27.65;12.73;;;;;;;5.71;66.03;101121.13;5030457;28;20555;-43
2022/12/11 08:20:38;;;;;;;26.95;12.50;;;;;;;5.76;66.15;101116.97;5029927;28;20116;-42
2022/12/11 08:23:03;;;;;;;27.13;11.68;;;;;;;5.83;66.04;101126.72;5028562;28;20069;-44
2022/12/11 08:25:28;;;;;;;27.83;12.52;;;;;;;5.81;65.66;101122.31;5029972;28;20448;-42
2022/12/11 08:27:54;;;;;;;24.15;12.10;;;;;;;5.81;65.82;101120.59;5029828;28;20021;-45
2022/12/11 08:30:19;;;;;;;26.58;12.25;;;;;;;6.00;65.91;101117.91;5029570;28;20349;-45
2022/12/11 08:32:44;;;;;;;25.48;11.93;;;;;;;6.14;65.49;101118.38;5029856;28;20018;-47
2022/12/11 08:35:10;;;;;;;27.60;12.60;;;;;;;6.10;64.99;101127.75;5033679;28;20121;-42
2022/12/11 08:37:35;;;;;;;24.75;11.95;;;;;;;6.12;64.37;101122.63;5033261;28;20473;-43
2022/12/11 08:40:00;;;;;;;23.00;11.50;;;;;;;6.28;64.31;101126.66;5033656;28;20029;-43
2022/12/11 08:42:26;;;;;;;23.13;11.48;;;;;;;6.28;63.98;101124.06;5033530;28;20024;-41
2022/12/11 08:44:51;;;;;;;25.80;11.90;;;;;;;6.33;64.04;101123.38;5033042;28;20482;-43
2022/12/11 08:47:17;;;;;;;23.58;11.95;;;;;;;6.31;63.81;101126.72;5033251;28;20310;-42
2022/12/11 08:49:42;;;;;;;24.00;12.43;;;;;;;6.41;63.23;101126.22;5033335;28;20465;-45
2022/12/11 08:52:07;;;;;;;22.98;11.90;;;;;;;6.23;62.93;101126.47;5031645;28;20056;-43
2022/12/11 08:54:33;;;;;;;27.50;12.45;;;;;;;6.38;62.26;101128.72;5033066;28;20090;-43
2022/12/11 08:56:58;;;;;;;26.75;12.60;;;;;;;6.18;62.75;101116.78;5032996;28;20036;-44
2022/12/11 08:59:24;;;;;;;24.70;12.52;;;;;;;6.45;62.25;101125.50;5033259;28;20026;-44
2022/12/11 09:01:50;;;;;;;25.45;12.65;;;;;;;6.54;61.84;101125.78;5032769;28;20160;-44
2022/12/11 09:04:15;;;;;;;26.73;12.88;;;;;;;6.63;61.79;101117.47;5033053;28;20572;-42
2022/12/11 09:06:41;;;;;;;25.00;12.75;;;;;;;6.60;61.90;101123.41;5032946;28;20112;-44
2022/12/11 09:09:06;;;;;;;25.95;12.35;;;;;;;6.57;61.89;101117.25;5032967;28;20036;-43
2022/12/11 09:11:34;;;;;;;27.88;12.50;;;;;;;6.77;61.62;101117.06;5032587;28;20029;-45
2022/12/11 09:14:01;;;;;;;24.35;12.40;;;;;;;6.74;61.53;101114.38;5032730;28;20472;-43
2022/12/11 09:16:26;;;;;;;25.85;12.40;;;;;;;6.75;61.29;101120.47;5032973;28;20371;-42
2022/12/11 09:18:55;;;;;;;24.63;12.50;;;;;;;6.79;60.97;101117.13;5032602;28;20037;-43
2022/12/11 09:21:23;;;;;;;26.17;13.02;;;;;;;6.74;61.05;101114.38;5032570;28;20060;-45
2022/12/11 09:23:52;;;;;;;24.77;12.65;;;;;;;6.82;61.14;101112.06;5047464;22;20049;-40
2022/12/11 09:26:18;;;;;;;25.77;12.77;;;;;;;6.96;61.10;101118.53;5033083;28;20030;-47
2022/12/11 09:28:44;;;;;;;24.98;13.30;;;;;;;7.07;60.99;101112.00;5033124;28;20021;-44
2022/12/11 09:31:11;;;;;;;27.95;13.73;;;;;;;7.07;61.44;101111.13;5033218;28;20033;-40
2022/12/11 09:33:37;;;;;;;26.27;13.27;;;;;;;7.16;61.34;101111.38;5032661;28;20087;-40
2022/12/11 09:36:03;;;;;;;31.05;14.80;;;;;;;7.10;60.93;101116.38;5033074;28;20474;-44
2022/12/11 09:38:29;;;;;;;30.13;14.45;;;;;;;7.04;60.74;101114.47;5033515;28;20473;-42
2022/12/11 09:40:55;;;;;;;29.05;14.48;;;;;;;7.02;61.27;101110.94;5033056;28;20496;-42
2022/12/11 09:43:40;;;;;;;30.77;14.85;;;;;;;7.13;61.27;101109.59;5032927;28;20101;-42
2022/12/11 09:46:11;;;;;;;30.17;14.77;;;;;;;7.26;61.15;101103.03;5032726;28;20367;-41
2022/12/11 09:48:38;;;;;;;31.02;14.27;;;;;;;7.18;61.01;101110.63;5033546;28;20067;-40
2022/12/11 09:51:31;;;;;;;31.15;15.05;;;;;;;7.28;60.48;101107.47;5033163;28;20029;-43
2022/12/11 09:54:01;;;;;;;30.25;14.18;;;;;;;7.16;60.64;101108.78;5033667;28;20056;-46
2022/12/11 09:56:40;;;;;;;30.05;14.35;;;;;;;7.15;60.67;101107.03;5033806;28;20032;-42
2022/12/11 09:59:15;;;;;;;31.25;14.57;;;;;;;6.89;61.43;101101.06;5034458;28;20413;-42
2022/12/11 10:01:49;;;;;;;29.08;14.07;;;;;;;7.11;60.50;101108.66;5034452;28;20021;-41
2022/12/11 10:04:23;;;;;;;32.55;15.40;;;;;;;7.10;60.66;101101.72;5035188;28;20567;-43
2022/12/11 10:07:14;;;;;;;30.85;14.60;;;;;;;7.31;60.48;101104.09;5035241;28;20022;-43
2022/12/11 10:09:58;;;;;;;33.25;15.15;;;;;;;7.34;60.29;101098.97;5032283;28;20075;-41
2022/12/11 10:12:26;;;;;;;34.42;15.77;;;;;;;7.18;60.49;101105.44;5032306;28;20139;-40
2022/12/11 10:15:04;;;;;;;30.40;15.15;;;;;;;7.35;60.36;101100.75;5032093;28;20263;-40
2022/12/11 10:17:33;;;;;;;32.40;14.80;;;;;;;7.37;60.69;101104.28;5031877;28;20456;-42
2022/12/11 10:20:15;;;;;;;30.30;14.52;;;;;;;7.20;60.60;101108.94;5032124;28;20032;-42
2022/12/11 10:22:42;;;;;;;30.98;15.07;;;;;;;7.36;60.41;101109.41;5031609;28;20025;-40
2022/12/11 10:25:20;;;;;;;30.63;14.50;;;;;;;7.47;60.64;101106.28;5031607;28;20083;-41
2022/12/11 10:27:46;;;;;;;29.58;14.95;;;;;;;7.65;59.96;101095.56;5031981;28;20087;-40
2022/12/11 10:30:20;;;;;;;30.58;15.07;;;;;;;7.22;60.63;101093.44;5030810;28;20432;-39
2022/12/11 10:33:05;;;;;;;33.72;15.80;;;;;;;7.52;60.17;101102.13;5031892;28;20033;-39
2022/12/11 10:35:47;;;;;;;34.85;15.80;;;;;;;6.84;61.40;101089.63;5032179;28;20030;-41
2022/12/11 10:38:23;;;;;;;34.92;16.00;;;;;;;6.87;62.52;101089.75;5031444;28;20117;-42
2022/12/11 10:40:56;;;;;;;33.33;16.25;;;;;;;7.19;61.50;101090.75;5031240;28;20029;-42
2022/12/11 10:43:43;;;;;;;35.55;17.33;;;;;;;7.20;60.78;101079.53;5030144;28;20021;-43
2022/12/11 10:46:20;;;;;;;37.42;16.98;;;;;;;7.09;61.07;101081.81;5031829;28;20028;-41
2022/12/11 10:48:47;;;;;;;35.40;17.00;;;;;;;7.09;61.32;101076.63;5031240;28;20040;-40
2022/12/11 10:51:13;;;;;;;33.67;16.70;;;;;;;7.31;60.89;101076.44;5029600;28;20030;-51
2022/12/11 10:53:39;;;;;;;36.67;17.63;;;;;;;7.11;61.40;101067.19;5031396;28;20037;-41
2022/12/11 10:56:05;;;;;;;32.38;17.02;;;;;;;7.36;60.67;101071.38;5031736;28;20034;-48
2022/12/11 10:58:32;;;;;;;33.35;16.30;;;;;;;7.36;60.64;101073.09;5031351;28;20313;-40
2022/12/11 11:01:04;;;;;;;35.28;16.48;;;;;;;7.12;60.54;101071.53;5031092;28;20067;-42
2022/12/11 11:03:31;;;;;;;34.10;17.35;;;;;;;7.44;60.24;101075.06;5031032;28;20025;-43
2022/12/11 11:06:06;;;;;;;34.55;16.95;;;;;;;7.43;60.53;101064.66;5031466;28;20064;-42
2022/12/11 11:08:43;;;;;;;32.70;16.08;;;;;;;7.48;60.27;101061.38;5032048;28;20428;-43
2022/12/11 11:11:33;;;;;;;34.58;17.08;;;;;;;7.53;59.72;101064.97;5032215;28;20029;-40
2022/12/11 11:14:21;;;;;;;36.97;16.55;;;;;;;7.54;59.93;101066.72;5031304;28;20030;-41
2022/12/11 11:16:50;;;;;;;35.47;15.57;;;;;;;7.24;60.78;101060.66;5030875;28;20033;-44
2022/12/11 11:19:17;;;;;;;33.53;16.08;;;;;;;7.65;59.82;101061.84;5029739;28;20418;-41
2022/12/11 11:21:49;;;;;;;30.75;15.50;;;;;;;7.50;59.84;101064.00;5030453;28;20512;-41
2022/12/11 11:24:26;;;;;;;29.75;15.13;;;;;;;7.51;59.25;101052.78;5030422;28;20036;-42
2022/12/11 11:26:52;;;;;;;28.30;14.57;;;;;;;7.50;58.19;101064.00;5030615;28;20040;-42
2022/12/11 11:29:27;;;;;;;27.88;13.82;;;;;;;7.56;57.81;101066.78;5030979;28;20056;-41
2022/12/11 11:31:53;;;;;;;33.83;15.68;;;;;;;7.69;57.95;101068.84;5030491;28;20478;-40